Atwood, CO

1:31 AM MDT on September 23, 2014 (GMT -0600)
Sterling Municipal | Change Station
CLOSE
Current Station
Airport
Location: Sterling Muni, Sterling, CO,
Elevation: 4039 ft
Nearby Weather Stations

Elev 4039 ft 40.62 °N, 103.26 °W | Updated 21 minutes ago

Partly Cloudy
Partly Cloudy
59 °F
Feels Like 59 °F
N
5
Wind Variable Wind from SSW

Today
High -- | Low -- °F
--% Chance of Precip.
Yesterday
High -- | Low -- °F
Precip. -- in
6:41 AM 6:48 PM
Waning Crescent, 1% visible
Pressure 30.06 in
Visibility 10.0 miles
Clouds Mostly Cloudy 10000 ft
Dew Point 57 °F
Humidity 94%
Rainfall 0.00 in
Snow Depth Not available.
UV 0 out of 12
Pollen 5.60 out of 12
Air Quality Not available.
Flu Activity Not available.
METAR KSTK 230710Z AUTO 21004KT 10SM BKN100 15/14 A3006 RMK AO2 LTG DSNT E

More Conditions Fewer Conditions

Pressure 30.06 in
Visibility 10.0 miles
Clouds Mostly Cloudy 10000 ft
Dew Point 57 °F
Humidity 94%
Rainfall 0.00 in
Snow Depth Not available.
UV 0 out of 12
Pollen 5.60 out of 12
Air Quality Not available.
Flu Activity Not available.
METAR KSTK 230710Z AUTO 21004KT 10SM BKN100 15/14 A3006 RMK AO2 LTG DSNT E

More Conditions Fewer Conditions

Nowcast | as of 12:07 am MDT on September 23, 2014

Isolated showers and thunderstorms will continue across the northeast corner of Colorado through 2 am...mainly in northeastern Logan and Sedgwick counties. Brief heavy rain is possible with some of the storms.

×

10-Day Weather Forecast

Almanac

Astronomy

Sep. 23, 2014 Rise Set
Actual Time 6:41 AM MDT 6:48 PM MDT
Civil Twilight 6:14 AM MDT 7:15 PM MDT
Nautical Twilight 5:42 AM MDT 7:47 PM MDT
Astronomical Twilight 5:10 AM MDT 8:19 PM MDT
Moon 6:07 AM MDT 6:28 PM MDT
Length of Visible Light 13h 01m
Length of Day
12h 06m
Tomorrow will be 2m 40s shorter.
Waning Crescent, 1% of the Moon is Illuminated
Today
Waning Crescent
Sep 24
New
Oct 1
First Quarter
Oct 8
Full
Oct 15
Last Quarter

Today's Extremes

State Highs State Lows

Community

WunderPhotos

Upload Photos

1,755,608 photos uploaded!

Nearby

Snow Depth

Station Depth Elevation
Trapper Lake 1 in 9700 ft
Cumbres Trestle 0 in 10020 ft
South Colony 0 in 10800 ft
Fremont Pass 0 in 11400 ft
Beaver Divide 0 in 8280 ft

Earthquake Activity

City Distance Mag. Time & Date
No recent earthquake activity has been reported nearby.
Minimum magnitude displayed is 2.5.

Coastal Water Temperatures

Place Temperature
No Stations Reporting

Nearby Weather Stations